sensor_id;sensor_type;location;lat;lon;timestamp;temperature;humidity
70928;SHT31;58587;53.034;18.576;2023-07-13T07:38:21;21.69;77.93
70928;SHT31;58587;53.034;18.576;2023-07-13T07:40:46;21.76;78.49
70928;SHT31;58587;53.034;18.576;2023-07-13T07:43:12;21.80;79.45
70928;SHT31;58587;53.034;18.576;2023-07-13T07:45:39;21.83;78.31
70928;SHT31;58587;53.034;18.576;2023-07-13T07:48:05;21.84;75.70
70928;SHT31;58587;53.034;18.576;2023-07-13T07:50:30;21.84;75.39
70928;SHT31;58587;53.034;18.576;2023-07-13T07:52:56;21.89;71.50
70928;SHT31;58587;53.034;18.576;2023-07-13T07:55:22;22.00;73.52
70928;SHT31;58587;53.034;18.576;2023-07-13T07:57:48;21.98;72.77
70928;SHT31;58587;53.034;18.576;2023-07-13T08:00:14;22.00;71.75
70928;SHT31;58587;53.034;18.576;2023-07-13T08:02:39;22.10;73.98
70928;SHT31;58587;53.034;18.576;2023-07-13T08:05:07;22.21;74.33
70928;SHT31;58587;53.034;18.576;2023-07-13T08:07:32;22.25;74.31
70928;SHT31;58587;53.034;18.576;2023-07-13T08:09:57;22.38;75.13
70928;SHT31;58587;53.034;18.576;2023-07-13T08:12:23;22.38;72.82
70928;SHT31;58587;53.034;18.576;2023-07-13T08:14:51;22.49;74.24
70928;SHT31;58587;53.034;18.576;2023-07-13T08:17:22;22.55;73.91
70928;SHT31;58587;53.034;18.576;2023-07-13T08:19:48;22.55;71.61
70928;SHT31;58587;53.034;18.576;2023-07-13T08:22:13;22.62;73.18
70928;SHT31;58587;53.034;18.576;2023-07-13T08:24:39;22.59;71.51
70928;SHT31;58587;53.034;18.576;2023-07-13T08:27:04;22.68;73.90
70928;SHT31;58587;53.034;18.576;2023-07-13T08:29:29;22.73;74.95
70928;SHT31;58587;53.034;18.576;2023-07-13T08:31:57;22.81;74.00
70928;SHT31;58587;53.034;18.576;2023-07-13T08:34:22;22.72;68.94
70928;SHT31;58587;53.034;18.576;2023-07-13T08:36:48;22.79;69.05
70928;SHT31;58587;53.034;18.576;2023-07-13T08:39:13;22.78;69.78
70928;SHT31;58587;53.034;18.576;2023-07-13T08:41:39;22.82;70.07
70928;SHT31;58587;53.034;18.576;2023-07-13T08:44:11;22.85;71.69
70928;SHT31;58587;53.034;18.576;2023-07-13T08:46:41;22.94;73.80
70928;SHT31;58587;53.034;18.576;2023-07-13T08:49:16;22.96;72.49
70928;SHT31;58587;53.034;18.576;2023-07-13T08:51:55;23.06;73.05
70928;SHT31;58587;53.034;18.576;2023-07-13T08:54:30;23.07;72.00
70928;SHT31;58587;53.034;18.576;2023-07-13T08:56:58;23.22;73.26
70928;SHT31;58587;53.034;18.576;2023-07-13T08:59:27;23.15;71.56
70928;SHT31;58587;53.034;18.576;2023-07-13T09:04:28;23.22;71.29
70928;SHT31;58587;53.034;18.576;2023-07-13T09:12:45;23.13;71.44
70928;SHT31;58587;53.034;18.576;2023-07-13T09:15:23;23.17;72.10
70928;SHT31;58587;53.034;18.576;2023-07-13T09:17:51;23.19;69.69
70928;SHT31;58587;53.034;18.576;2023-07-13T09:20:35;23.24;70.25
70928;SHT31;58587;53.034;18.576;2023-07-13T09:23:06;23.39;69.44
70928;SHT31;58587;53.034;18.576;2023-07-13T09:25:34;23.53;70.46
70928;SHT31;58587;53.034;18.576;2023-07-13T09:28:12;23.69;69.37
70928;SHT31;58587;53.034;18.576;2023-07-13T09:30:46;23.85;70.34
70928;SHT31;58587;53.034;18.576;2023-07-13T09:33:16;23.98;68.88
70928;SHT31;58587;53.034;18.576;2023-07-13T09:35:42;24.01;66.12
70928;SHT31;58587;53.034;18.576;2023-07-13T09:38:18;24.00;64.69
70928;SHT31;58587;53.034;18.576;2023-07-13T09:40:53;23.87;64.18
70928;SHT31;58587;53.034;18.576;2023-07-13T09:43:22;23.94;64.58
70928;SHT31;58587;53.034;18.576;2023-07-13T09:45:47;24.15;67.16
70928;SHT31;58587;53.034;18.576;2023-07-13T09:48:15;24.24;63.54
70928;SHT31;58587;53.034;18.576;2023-07-13T09:50:42;24.49;65.34
70928;SHT31;58587;53.034;18.576;2023-07-13T09:53:16;24.49;62.80
70928;SHT31;58587;53.034;18.576;2023-07-13T09:55:44;24.53;61.42
70928;SHT31;58587;53.034;18.576;2023-07-13T09:58:21;24.61;60.94
70928;SHT31;58587;53.034;18.576;2023-07-13T10:01:07;24.82;62.39
70928;SHT31;58587;53.034;18.576;2023-07-13T10:03:34;24.86;59.39
70928;SHT31;58587;53.034;18.576;2023-07-13T10:06:19;25.00;59.33
70928;SHT31;58587;53.034;18.576;2023-07-13T10:08:46;25.13;60.71
70928;SHT31;58587;53.034;18.576;2023-07-13T10:11:21;25.10;60.29
70928;SHT31;58587;53.034;18.576;2023-07-13T10:13:50;25.03;60.03
70928;SHT31;58587;53.034;18.576;2023-07-13T10:16:16;24.87;59.22
70928;SHT31;58587;53.034;18.576;2023-07-13T10:21:22;24.63;60.69
70928;SHT31;58587;53.034;18.576;2023-07-13T10:23:51;24.59;62.82
70928;SHT31;58587;53.034;18.576;2023-07-13T10:26:32;24.45;61.94
70928;SHT31;58587;53.034;18.576;2023-07-13T10:29:01;24.29;64.15
70928;SHT31;58587;53.034;18.576;2023-07-13T10:31:30;24.18;63.31
70928;SHT31;58587;53.034;18.576;2023-07-13T10:33:55;24.05;62.74
70928;SHT31;58587;53.034;18.576;2023-07-13T10:36:45;23.88;63.20
70928;SHT31;58587;53.034;18.576;2023-07-13T10:39:20;23.64;64.61
70928;SHT31;58587;53.034;18.576;2023-07-13T10:41:52;23.06;66.80
70928;SHT31;58587;53.034;18.576;2023-07-13T10:44:23;22.98;68.08
70928;SHT31;58587;53.034;18.576;2023-07-13T10:46:55;22.76;68.41
70928;SHT31;58587;53.034;18.576;2023-07-13T10:49:21;22.52;72.47
70928;SHT31;58587;53.034;18.576;2023-07-13T10:51:47;22.34;74.45
70928;SHT31;58587;53.034;18.576;2023-07-13T10:54:21;22.20;75.30
70928;SHT31;58587;53.034;18.576;2023-07-13T10:56:50;22.03;76.05
70928;SHT31;58587;53.034;18.576;2023-07-13T10:59:20;21.74;78.66
70928;SHT31;58587;53.034;18.576;2023-07-13T11:01:57;21.56;77.24
70928;SHT31;58587;53.034;18.576;2023-07-13T11:04:25;21.53;80.42
70928;SHT31;58587;53.034;18.576;2023-07-13T11:06:56;21.50;79.95
70928;SHT31;58587;53.034;18.576;2023-07-13T11:09:40;21.39;80.61
70928;SHT31;58587;53.034;18.576;2023-07-13T11:12:59;21.40;81.00
70928;SHT31;58587;53.034;18.576;2023-07-13T11:15:31;21.33;81.56
70928;SHT31;58587;53.034;18.576;2023-07-13T11:18:02;21.26;82.48
70928;SHT31;58587;53.034;18.576;2023-07-13T11:20:39;21.23;82.61
70928;SHT31;58587;53.034;18.576;2023-07-13T11:23:18;21.20;83.09
70928;SHT31;58587;53.034;18.576;2023-07-13T11:25:44;21.16;82.83
70928;SHT31;58587;53.034;18.576;2023-07-13T11:36:06;20.94;81.64
70928;SHT31;58587;53.034;18.576;2023-07-13T11:38:45;20.88;81.88
70928;SHT31;58587;53.034;18.576;2023-07-13T11:41:35;20.91;83.78
70928;SHT31;58587;53.034;18.576;2023-07-13T11:44:13;20.96;83.25
70928;SHT31;58587;53.034;18.576;2023-07-13T11:46:45;21.12;83.94
70928;SHT31;58587;53.034;18.576;2023-07-13T11:49:15;21.20;84.09
70928;SHT31;58587;53.034;18.576;2023-07-13T11:51:41;21.33;83.02
70928;SHT31;58587;53.034;18.576;2023-07-13T11:54:20;21.57;83.12
70928;SHT31;58587;53.034;18.576;2023-07-13T11:56:46;21.90;83.19
70928;SHT31;58587;53.034;18.576;2023-07-13T11:59:12;22.13;81.47
70928;SHT31;58587;53.034;18.576;2023-07-13T12:01:45;22.44;81.88
70928;SHT31;58587;53.034;18.576;2023-07-13T12:04:22;22.66;78.39
70928;SHT31;58587;53.034;18.576;2023-07-13T12:07:36;22.88;76.66
70928;SHT31;58587;53.034;18.576;2023-07-13T12:09:43;23.23;76.80
70928;SHT31;58587;53.034;18.576;2023-07-13T12:12:18;23.54;74.73
70928;SHT31;58587;53.034;18.576;2023-07-13T12:14:44;23.81;77.27
70928;SHT31;58587;53.034;18.576;2023-07-13T12:17:20;23.96;75.77
70928;SHT31;58587;53.034;18.576;2023-07-13T12:19:45;24.08;75.51
70928;SHT31;58587;53.034;18.576;2023-07-13T12:22:14;24.20;74.80
70928;SHT31;58587;53.034;18.576;2023-07-13T12:24:41;24.69;74.72
70928;SHT31;58587;53.034;18.576;2023-07-13T12:27:20;25.13;71.65
70928;SHT31;58587;53.034;18.576;2023-07-13T12:29:52;25.43;69.30
70928;SHT31;58587;53.034;18.576;2023-07-13T12:32:19;25.70;68.35
70928;SHT31;58587;53.034;18.576;2023-07-13T12:35:15;25.91;68.32
70928;SHT31;58587;53.034;18.576;2023-07-13T12:37:46;26.29;68.12
70928;SHT31;58587;53.034;18.576;2023-07-13T12:40:16;26.50;62.27
70928;SHT31;58587;53.034;18.576;2023-07-13T12:42:46;26.90;62.91
70928;SHT31;58587;53.034;18.576;2023-07-13T12:45:20;27.17;64.31
70928;SHT31;58587;53.034;18.576;2023-07-13T12:47:54;27.20;61.74
70928;SHT31;58587;53.034;18.576;2023-07-13T12:50:21;27.51;61.32
70928;SHT31;58587;53.034;18.576;2023-07-13T12:53:02;27.51;56.55
70928;SHT31;58587;53.034;18.576;2023-07-13T12:55:29;27.51;55.85
70928;SHT31;58587;53.034;18.576;2023-07-13T12:57:59;27.78;60.14
70928;SHT31;58587;53.034;18.576;2023-07-13T13:02:52;27.61;56.93
70928;SHT31;58587;53.034;18.576;2023-07-13T13:05:18;27.34;53.96
70928;SHT31;58587;53.034;18.576;2023-07-13T13:07:49;27.08;58.00
70928;SHT31;58587;53.034;18.576;2023-07-13T13:10:14;26.93;57.53
70928;SHT31;58587;53.034;18.576;2023-07-13T13:12:40;26.76;58.12
70928;SHT31;58587;53.034;18.576;2023-07-13T13:15:10;26.48;56.67
70928;SHT31;58587;53.034;18.576;2023-07-13T13:17:37;26.31;56.27
70928;SHT31;58587;53.034;18.576;2023-07-13T13:20:13;26.09;57.84
70928;SHT31;58587;53.034;18.576;2023-07-13T13:22:38;26.04;58.39
70928;SHT31;58587;53.034;18.576;2023-07-13T13:25:04;25.85;58.78
70928;SHT31;58587;53.034;18.576;2023-07-13T13:27:30;25.73;58.05
70928;SHT31;58587;53.034;18.576;2023-07-13T13:29:57;25.68;59.46
70928;SHT31;58587;53.034;18.576;2023-07-13T13:32:24;25.64;58.85
70928;SHT31;58587;53.034;18.576;2023-07-13T13:34:49;25.78;57.92
70928;SHT31;58587;53.034;18.576;2023-07-13T13:37:22;25.66;57.03
70928;SHT31;58587;53.034;18.576;2023-07-13T13:39:49;25.43;58.60
70928;SHT31;58587;53.034;18.576;2023-07-13T13:42:14;25.26;60.11
70928;SHT31;58587;53.034;18.576;2023-07-13T13:44:40;24.93;60.63
70928;SHT31;58587;53.034;18.576;2023-07-13T13:47:30;24.65;61.87
70928;SHT31;58587;53.034;18.576;2023-07-13T13:49:54;24.33;62.47
70928;SHT31;58587;53.034;18.576;2023-07-13T13:52:19;24.31;63.18
70928;SHT31;58587;53.034;18.576;2023-07-13T13:54:44;24.10;62.29
70928;SHT31;58587;53.034;18.576;2023-07-13T13:57:10;23.94;63.58
70928;SHT31;58587;53.034;18.576;2023-07-13T13:59:37;23.74;63.63
70928;SHT31;58587;53.034;18.576;2023-07-13T14:02:20;23.80;63.93
70928;SHT31;58587;53.034;18.576;2023-07-13T14:04:49;23.63;67.64
70928;SHT31;58587;53.034;18.576;2023-07-13T14:07:15;23.49;69.62
70928;SHT31;58587;53.034;18.576;2023-07-13T14:09:40;23.46;68.75
70928;SHT31;58587;53.034;18.576;2023-07-13T14:12:09;23.60;69.26
70928;SHT31;58587;53.034;18.576;2023-07-13T14:14:36;24.47;68.37
70928;SHT31;58587;53.034;18.576;2023-07-13T14:17:02;25.36;64.49
70928;SHT31;58587;53.034;18.576;2023-07-13T14:19:27;25.94;63.06
70928;SHT31;58587;53.034;18.576;2023-07-13T14:21:52;26.63;57.70
70928;SHT31;58587;53.034;18.576;2023-07-13T14:24:18;27.06;58.45
70928;SHT31;58587;53.034;18.576;2023-07-13T14:26:45;27.78;53.19
70928;SHT31;58587;53.034;18.576;2023-07-13T14:29:16;28.60;56.17
70928;SHT31;58587;53.034;18.576;2023-07-13T14:31:43;28.91;52.06
70928;SHT31;58587;53.034;18.576;2023-07-13T14:34:12;29.11;50.51
70928;SHT31;58587;53.034;18.576;2023-07-13T14:36:44;29.66;50.66
70928;SHT31;58587;53.034;18.576;2023-07-13T14:39:15;30.20;47.05
70928;SHT31;58587;53.034;18.576;2023-07-13T14:41:42;30.33;46.33
70928;SHT31;58587;53.034;18.576;2023-07-13T14:44:15;30.70;45.36
70928;SHT31;58587;53.034;18.576;2023-07-13T14:46:41;31.21;47.67
70928;SHT31;58587;53.034;18.576;2023-07-13T14:51:45;31.29;45.03
70928;SHT31;58587;53.034;18.576;2023-07-13T14:54:10;31.28;45.43
70928;SHT31;58587;53.034;18.576;2023-07-13T14:56:36;31.62;45.28
70928;SHT31;58587;53.034;18.576;2023-07-13T14:59:02;32.03;43.57
70928;SHT31;58587;53.034;18.576;2023-07-13T15:01:27;32.19;41.40
70928;SHT31;58587;53.034;18.576;2023-07-13T15:03:53;32.20;40.31
70928;SHT31;58587;53.034;18.576;2023-07-13T15:06:19;32.45;38.05
70928;SHT31;58587;53.034;18.576;2023-07-13T15:08:45;32.24;37.71
70928;SHT31;58587;53.034;18.576;2023-07-13T15:11:11;31.94;37.69
70928;SHT31;58587;53.034;18.576;2023-07-13T15:13:38;31.29;40.41
70928;SHT31;58587;53.034;18.576;2023-07-13T15:16:05;30.64;42.39
70928;SHT31;58587;53.034;18.576;2023-07-13T15:18:35;30.05;43.02
70928;SHT31;58587;53.034;18.576;2023-07-13T15:21:09;29.42;41.39
70928;SHT31;58587;53.034;18.576;2023-07-13T15:23:34;29.04;43.20
70928;SHT31;58587;53.034;18.576;2023-07-13T15:26:00;28.74;43.72
70928;SHT31;58587;53.034;18.576;2023-07-13T15:28:25;28.67;43.97
70928;SHT31;58587;53.034;18.576;2023-07-13T15:30:50;29.15;44.11
70928;SHT31;58587;53.034;18.576;2023-07-13T15:33:23;28.87;45.19
70928;SHT31;58587;53.034;18.576;2023-07-13T15:35:49;28.56;44.20
70928;SHT31;58587;53.034;18.576;2023-07-13T15:38:33;29.08;42.52
70928;SHT31;58587;53.034;18.576;2023-07-13T15:41:10;29.71;42.98
70928;SHT31;58587;53.034;18.576;2023-07-13T15:43:40;30.09;43.99
70928;SHT31;58587;53.034;18.576;2023-07-13T15:46:05;30.29;43.55
70928;SHT31;58587;53.034;18.576;2023-07-13T15:48:31;30.03;40.74
70928;SHT31;58587;53.034;18.576;2023-07-13T15:51:00;30.13;40.20
70928;SHT31;58587;53.034;18.576;2023-07-13T15:53:33;29.81;41.89
70928;SHT31;58587;53.034;18.576;2023-07-13T15:55:59;29.59;41.99
70928;SHT31;58587;53.034;18.576;2023-07-13T15:58:26;29.38;43.82
70928;SHT31;58587;53.034;18.576;2023-07-13T16:00:53;29.20;43.24
70928;SHT31;58587;53.034;18.576;2023-07-13T16:03:20;29.11;43.80
70928;SHT31;58587;53.034;18.576;2023-07-13T16:05:46;29.17;43.80
70928;SHT31;58587;53.034;18.576;2023-07-13T16:08:33;28.79;42.82
70928;SHT31;58587;53.034;18.576;2023-07-13T16:10:59;28.60;42.75
70928;SHT31;58587;53.034;18.576;2023-07-13T16:13:25;28.56;47.01
70928;SHT31;58587;53.034;18.576;2023-07-13T16:15:51;28.31;44.33
70928;SHT31;58587;53.034;18.576;2023-07-13T16:18:17;28.23;44.30
70928;SHT31;58587;53.034;18.576;2023-07-13T16:20:45;27.95;46.67
70928;SHT31;58587;53.034;18.576;2023-07-13T16:23:15;27.88;45.94
70928;SHT31;58587;53.034;18.576;2023-07-13T16:25:41;27.84;45.37
70928;SHT31;58587;53.034;18.576;2023-07-13T16:28:09;27.68;45.93
70928;SHT31;58587;53.034;18.576;2023-07-13T16:30:36;27.59;46.08
70928;SHT31;58587;53.034;18.576;2023-07-13T16:33:04;27.50;45.37
70928;SHT31;58587;53.034;18.576;2023-07-13T16:35:39;27.38;46.56
70928;SHT31;58587;53.034;18.576;2023-07-13T16:38:17;27.26;46.73
70928;SHT31;58587;53.034;18.576;2023-07-13T16:40:43;26.96;45.88
70928;SHT31;58587;53.034;18.576;2023-07-13T16:43:11;26.92;46.95
70928;SHT31;58587;53.034;18.576;2023-07-13T16:45:38;26.86;47.39
70928;SHT31;58587;53.034;18.576;2023-07-13T16:48:14;26.66;48.20
70928;SHT31;58587;53.034;18.576;2023-07-13T16:50:41;26.48;47.79
70928;SHT31;58587;53.034;18.576;2023-07-13T16:53:25;26.33;48.04
70928;SHT31;58587;53.034;18.576;2023-07-13T16:55:51;26.17;47.81
70928;SHT31;58587;53.034;18.576;2023-07-13T16:58:22;26.01;48.69
70928;SHT31;58587;53.034;18.576;2023-07-13T17:00:51;25.94;48.08
70928;SHT31;58587;53.034;18.576;2023-07-13T17:03:17;25.84;48.82
70928;SHT31;58587;53.034;18.576;2023-07-13T17:05:44;25.66;49.08
70928;SHT31;58587;53.034;18.576;2023-07-13T17:08:21;25.63;49.25
70928;SHT31;58587;53.034;18.576;2023-07-13T17:10:52;25.56;49.59
70928;SHT31;58587;53.034;18.576;2023-07-13T17:13:19;25.41;51.13
70928;SHT31;58587;53.034;18.576;2023-07-13T17:15:49;25.30;51.57
70928;SHT31;58587;53.034;18.576;2023-07-13T17:18:18;25.30;51.19
70928;SHT31;58587;53.034;18.576;2023-07-13T17:20:45;25.19;50.09
70928;SHT31;58587;53.034;18.576;2023-07-13T17:23:22;25.16;50.60
70928;SHT31;58587;53.034;18.576;2023-07-13T17:25:50;25.10;52.47
70928;SHT31;58587;53.034;18.576;2023-07-13T17:28:18;25.06;52.04
70928;SHT31;58587;53.034;18.576;2023-07-13T17:30:46;24.99;51.81
70928;SHT31;58587;53.034;18.576;2023-07-13T17:33:28;24.95;53.35
70928;SHT31;58587;53.034;18.576;2023-07-13T17:35:54;24.92;53.88
70928;SHT31;58587;53.034;18.576;2023-07-13T17:38:20;24.86;52.63
70928;SHT31;58587;53.034;18.576;2023-07-13T17:40:45;24.85;52.61
70928;SHT31;58587;53.034;18.576;2023-07-13T17:43:11;24.71;53.29
70928;SHT31;58587;53.034;18.576;2023-07-13T17:45:36;24.65;52.99
70928;SHT31;58587;53.034;18.576;2023-07-13T17:48:02;24.53;52.80
70928;SHT31;58587;53.034;18.576;2023-07-13T17:50:33;24.47;53.25
70928;SHT31;58587;53.034;18.576;2023-07-13T17:53:12;24.39;53.21
70928;SHT31;58587;53.034;18.576;2023-07-13T17:55:38;24.31;53.97
70928;SHT31;58587;53.034;18.576;2023-07-13T17:58:03;24.29;53.49
70928;SHT31;58587;53.034;18.576;2023-07-13T18:00:34;24.26;54.66
70928;SHT31;58587;53.034;18.576;2023-07-13T18:03:12;24.21;54.19
70928;SHT31;58587;53.034;18.576;2023-07-13T18:05:39;24.08;56.84
70928;SHT31;58587;53.034;18.576;2023-07-13T18:08:08;24.01;58.14
70928;SHT31;58587;53.034;18.576;2023-07-13T18:10:42;23.93;59.37
70928;SHT31;58587;53.034;18.576;2023-07-13T18:13:08;23.82;59.08
70928;SHT31;58587;53.034;18.576;2023-07-13T18:15:34;23.70;59.14
70928;SHT31;58587;53.034;18.576;2023-07-13T18:17:59;23.70;57.92
70928;SHT31;58587;53.034;18.576;2023-07-13T18:20:25;23.67;59.10
70928;SHT31;58587;53.034;18.576;2023-07-13T18:22:51;23.57;60.25
70928;SHT31;58587;53.034;18.576;2023-07-13T18:25:22;23.46;61.48
70928;SHT31;58587;53.034;18.576;2023-07-13T18:27:48;23.30;62.35
70928;SHT31;58587;53.034;18.576;2023-07-13T18:30:15;23.16;63.65
70928;SHT31;58587;53.034;18.576;2023-07-13T18:32:48;23.12;62.42
70928;SHT31;58587;53.034;18.576;2023-07-13T18:35:21;22.92;63.09
70928;SHT31;58587;53.034;18.576;2023-07-13T18:37:50;22.85;63.71
70928;SHT31;58587;53.034;18.576;2023-07-13T18:40:18;22.78;64.67
70928;SHT31;58587;53.034;18.576;2023-07-13T18:42:44;22.66;64.81
70928;SHT31;58587;53.034;18.576;2023-07-13T18:45:15;22.52;66.44
70928;SHT31;58587;53.034;18.576;2023-07-13T18:47:42;22.43;66.63
70928;SHT31;58587;53.034;18.576;2023-07-13T18:50:21;22.30;67.28
70928;SHT31;58587;53.034;18.576;2023-07-13T18:52:49;22.21;66.94
70928;SHT31;58587;53.034;18.576;2023-07-13T18:55:16;22.15;67.34
70928;SHT31;58587;53.034;18.576;2023-07-13T18:57:45;22.01;67.71
70928;SHT31;58587;53.034;18.576;2023-07-13T19:00:13;21.86;67.30
70928;SHT31;58587;53.034;18.576;2023-07-13T19:02:38;21.76;67.40
70928;SHT31;58587;53.034;18.576;2023-07-13T19:05:16;21.66;68.23
70928;SHT31;58587;53.034;18.576;2023-07-13T19:07:42;21.54;69.29
70928;SHT31;58587;53.034;18.576;2023-07-13T19:10:16;21.43;69.49
70928;SHT31;58587;53.034;18.576;2023-07-13T19:12:46;21.35;69.85
70928;SHT31;58587;53.034;18.576;2023-07-13T19:15:25;21.23;70.46
70928;SHT31;58587;53.034;18.576;2023-07-13T19:17:51;21.13;71.67
70928;SHT31;58587;53.034;18.576;2023-07-13T19:20:18;21.06;71.13
70928;SHT31;58587;53.034;18.576;2023-07-13T19:23:01;20.95;70.97
70928;SHT31;58587;53.034;18.576;2023-07-13T19:25:28;20.87;71.89
70928;SHT31;58587;53.034;18.576;2023-07-13T19:30:42;20.65;72.37
70928;SHT31;58587;53.034;18.576;2023-07-13T19:33:14;20.61;72.59
70928;SHT31;58587;53.034;18.576;2023-07-13T19:35:40;20.54;72.94
70928;SHT31;58587;53.034;18.576;2023-07-13T19:38:15;20.41;73.92
70928;SHT31;58587;53.034;18.576;2023-07-13T19:40:42;20.31;73.87
70928;SHT31;58587;53.034;18.576;2023-07-13T19:43:14;20.27;74.33
70928;SHT31;58587;53.034;18.576;2023-07-13T19:45:39;20.21;74.29
70928;SHT31;58587;53.034;18.576;2023-07-13T19:48:05;20.13;74.47
70928;SHT31;58587;53.034;18.576;2023-07-13T19:50:32;20.01;74.85
70928;SHT31;58587;53.034;18.576;2023-07-13T19:52:58;19.92;75.04
70928;SHT31;58587;53.034;18.576;2023-07-13T19:55:26;19.89;74.66
70928;SHT31;58587;53.034;18.576;2023-07-13T19:57:53;19.77;75.41
70928;SHT31;58587;53.034;18.576;2023-07-13T20:00:23;19.73;74.96
70928;SHT31;58587;53.034;18.576;2023-07-13T20:02:50;19.63;75.72
70928;SHT31;58587;53.034;18.576;2023-07-13T20:05:17;19.61;76.19
70928;SHT31;58587;53.034;18.576;2023-07-13T20:07:59;19.55;76.63
70928;SHT31;58587;53.034;18.576;2023-07-13T20:12:51;19.43;75.94
70928;SHT31;58587;53.034;18.576;2023-07-13T20:15:19;19.39;76.16
70928;SHT31;58587;53.034;18.576;2023-07-13T20:17:53;19.38;75.94
70928;SHT31;58587;53.034;18.576;2023-07-13T20:22:59;19.32;74.63
70928;SHT31;58587;53.034;18.576;2023-07-13T20:25:27;19.22;75.28
70928;SHT31;58587;53.034;18.576;2023-07-13T20:27:54;19.15;75.54
70928;SHT31;58587;53.034;18.576;2023-07-13T20:30:20;19.12;75.05
70928;SHT31;58587;53.034;18.576;2023-07-13T20:32:46;19.04;75.83
70928;SHT31;58587;53.034;18.576;2023-07-13T20:35:30;18.97;75.30
70928;SHT31;58587;53.034;18.576;2023-07-13T20:37:57;18.92;75.50
70928;SHT31;58587;53.034;18.576;2023-07-13T20:40:25;18.88;76.62
70928;SHT31;58587;53.034;18.576;2023-07-13T20:42:50;18.84;76.71
70928;SHT31;58587;53.034;18.576;2023-07-13T20:45:16;18.78;77.11
70928;SHT31;58587;53.034;18.576;2023-07-13T20:47:42;18.74;77.60
70928;SHT31;58587;53.034;18.576;2023-07-13T20:52:45;18.70;77.20
70928;SHT31;58587;53.034;18.576;2023-07-13T20:55:15;18.65;77.31
70928;SHT31;58587;53.034;18.576;2023-07-13T20:57:41;18.67;77.49
70928;SHT31;58587;53.034;18.576;2023-07-13T21:00:29;18.58;76.68
70928;SHT31;58587;53.034;18.576;2023-07-13T21:02:59;18.60;76.50
70928;SHT31;58587;53.034;18.576;2023-07-13T21:05:27;18.58;77.54
70928;SHT31;58587;53.034;18.576;2023-07-13T21:07:53;18.54;77.60
70928;SHT31;58587;53.034;18.576;2023-07-13T21:10:27;18.50;77.40
70928;SHT31;58587;53.034;18.576;2023-07-13T21:12:53;18.50;77.14
70928;SHT31;58587;53.034;18.576;2023-07-13T21:15:25;18.46;77.37
70928;SHT31;58587;53.034;18.576;2023-07-13T21:17:54;18.41;77.84
70928;SHT31;58587;53.034;18.576;2023-07-13T21:20:23;18.43;77.60
70928;SHT31;58587;53.034;18.576;2023-07-13T21:22:49;18.38;77.29
70928;SHT31;58587;53.034;18.576;2023-07-13T21:25:21;18.33;77.05
70928;SHT31;58587;53.034;18.576;2023-07-13T21:27:51;18.29;75.43
70928;SHT31;58587;53.034;18.576;2023-07-13T21:30:19;18.27;76.57
70928;SHT31;58587;53.034;18.576;2023-07-13T21:32:48;18.27;75.44
70928;SHT31;58587;53.034;18.576;2023-07-13T21:35:27;18.29;75.94
70928;SHT31;58587;53.034;18.576;2023-07-13T21:37:54;18.26;75.75
70928;SHT31;58587;53.034;18.576;2023-07-13T21:40:21;18.25;75.36
70928;SHT31;58587;53.034;18.576;2023-07-13T21:42:47;18.25;74.98
70928;SHT31;58587;53.034;18.576;2023-07-13T21:45:26;18.20;76.21
70928;SHT31;58587;53.034;18.576;2023-07-13T21:47:54;18.20;76.25
70928;SHT31;58587;53.034;18.576;2023-07-13T21:50:22;18.16;73.21
70928;SHT31;58587;53.034;18.576;2023-07-13T21:52:48;18.20;74.40
70928;SHT31;58587;53.034;18.576;2023-07-13T21:55:23;18.22;74.59
70928;SHT31;58587;53.034;18.576;2023-07-13T21:57:52;18.19;74.68
70928;SHT31;58587;53.034;18.576;2023-07-13T22:00:20;18.16;74.94
70928;SHT31;58587;53.034;18.576;2023-07-13T22:02:47;18.13;74.54
70928;SHT31;58587;53.034;18.576;2023-07-13T22:05:14;18.12;74.15
70928;SHT31;58587;53.034;18.576;2023-07-13T22:07:40;18.05;72.55
70928;SHT31;58587;53.034;18.576;2023-07-13T22:10:17;18.03;72.84
70928;SHT31;58587;53.034;18.576;2023-07-13T22:12:43;18.05;71.54
70928;SHT31;58587;53.034;18.576;2023-07-13T22:15:09;18.03;71.34
70928;SHT31;58587;53.034;18.576;2023-07-13T22:17:35;18.02;71.19
70928;SHT31;58587;53.034;18.576;2023-07-13T22:20:01;18.02;72.14
70928;SHT31;58587;53.034;18.576;2023-07-13T22:22:26;18.03;71.69
70928;SHT31;58587;53.034;18.576;2023-07-13T22:24:52;18.00;71.30
70928;SHT31;58587;53.034;18.576;2023-07-13T22:27:17;17.93;71.51
70928;SHT31;58587;53.034;18.576;2023-07-13T22:29:43;17.93;71.71
70928;SHT31;58587;53.034;18.576;2023-07-13T22:32:09;17.97;70.98
70928;SHT31;58587;53.034;18.576;2023-07-13T22:34:36;17.97;70.66
70928;SHT31;58587;53.034;18.576;2023-07-13T22:37:01;17.97;71.19
70928;SHT31;58587;53.034;18.576;2023-07-13T22:39:31;17.96;71.56
70928;SHT31;58587;53.034;18.576;2023-07-13T22:41:57;17.95;72.78
70928;SHT31;58587;53.034;18.576;2023-07-13T22:44:23;17.93;71.55
70928;SHT31;58587;53.034;18.576;2023-07-13T22:46:49;17.96;71.61
70928;SHT31;58587;53.034;18.576;2023-07-13T22:49:27;17.92;72.21
70928;SHT31;58587;53.034;18.576;2023-07-13T22:51:58;17.90;73.51
70928;SHT31;58587;53.034;18.576;2023-07-13T22:54:24;17.86;74.03
70928;SHT31;58587;53.034;18.576;2023-07-13T22:56:49;17.82;74.01
70928;SHT31;58587;53.034;18.576;2023-07-13T22:59:14;17.76;75.58
70928;SHT31;58587;53.034;18.576;2023-07-13T23:01:40;17.74;75.17
70928;SHT31;58587;53.034;18.576;2023-07-13T23:04:25;17.72;75.47
70928;SHT31;58587;53.034;18.576;2023-07-13T23:06:51;17.68;75.41
70928;SHT31;58587;53.034;18.576;2023-07-13T23:09:19;17.64;75.81
70928;SHT31;58587;53.034;18.576;2023-07-13T23:11:45;17.61;76.34
70928;SHT31;58587;53.034;18.576;2023-07-13T23:14:11;17.59;74.86
70928;SHT31;58587;53.034;18.576;2023-07-13T23:16:38;17.49;76.40
70928;SHT31;58587;53.034;18.576;2023-07-13T23:19:04;17.41;76.50
70928;SHT31;58587;53.034;18.576;2023-07-13T23:21:30;17.35;76.78
70928;SHT31;58587;53.034;18.576;2023-07-13T23:23:55;17.32;77.18
70928;SHT31;58587;53.034;18.576;2023-07-13T23:26:24;17.28;77.82
70928;SHT31;58587;53.034;18.576;2023-07-13T23:28:51;17.22;77.94
70928;SHT31;58587;53.034;18.576;2023-07-13T23:31:22;17.17;78.41
70928;SHT31;58587;53.034;18.576;2023-07-13T23:33:48;17.12;78.67
70928;SHT31;58587;53.034;18.576;2023-07-13T23:36:15;17.03;78.93
70928;SHT31;58587;53.034;18.576;2023-07-13T23:38:44;17.00;78.99
70928;SHT31;58587;53.034;18.576;2023-07-13T23:41:15;16.90;79.61